createdAt,value
2016-12-09T00:00:13.422Z,49.1
2016-12-09T00:01:13.445Z,49.41
2016-12-09T00:02:13.780Z,48.9
2016-12-09T00:03:13.804Z,48.9
2016-12-09T00:04:13.524Z,49.29
2016-12-09T00:05:13.554Z,49.1
2016-12-09T00:06:13.582Z,49.38
2016-12-09T00:07:13.913Z,49
2016-12-09T00:08:13.632Z,48.81
2016-12-09T00:09:13.971Z,48.71
2016-12-09T00:10:13.721Z,49.1
2016-12-09T00:11:14.025Z,48.9
2016-12-09T00:12:13.742Z,48.81
2016-12-09T00:13:14.075Z,48.71
2016-12-09T00:14:14.103Z,49.38
2016-12-09T00:15:14.128Z,48.81
2016-12-09T00:16:13.869Z,49.1
2016-12-09T00:17:13.873Z,49.1
2016-12-09T00:18:14.210Z,49.19
2016-12-09T00:19:14.235Z,49.1
2016-12-09T00:20:13.967Z,49.1
2016-12-09T00:21:13.984Z,49.29
2016-12-09T00:22:14.305Z,48.9
2016-12-09T00:23:14.350Z,49.38
2016-12-09T00:24:14.374Z,49.38
2016-12-09T00:25:14.399Z,49.29
2016-12-09T00:26:14.428Z,49.19
2016-12-09T00:27:14.144Z,48.9
2016-12-09T00:28:14.485Z,49.19
2016-12-09T00:29:14.505Z,49.29
2016-12-09T00:30:14.230Z,49
2016-12-09T00:31:14.255Z,49.1
2016-12-09T00:32:14.579Z,49
2016-12-09T00:33:14.316Z,49.19
2016-12-09T00:34:14.628Z,49.19
2016-12-09T00:35:14.361Z,48.88
2016-12-09T00:36:14.394Z,49.36
2016-12-09T00:37:14.723Z,49
2016-12-09T00:38:14.443Z,49.17
2016-12-09T00:39:14.468Z,49.07
2016-12-09T00:40:14.505Z,49.17
2016-12-09T00:41:14.530Z,49.07
2016-12-09T00:42:14.550Z,48.88
2016-12-09T00:43:14.582Z,49.07
2016-12-09T00:44:14.613Z,48.88
2016-12-09T00:45:14.936Z,48.97
2016-12-09T00:46:14.661Z,48.88
2016-12-09T00:47:14.998Z,48.88
2016-12-09T00:48:15.014Z,49.17
2016-12-09T00:49:14.735Z,48.88
2016-12-09T00:50:14.771Z,48.88
2016-12-09T00:51:15.104Z,49.07
2016-12-09T00:52:14.825Z,48.97
2016-12-09T00:53:14.853Z,48.88
2016-12-09T00:54:15.184Z,49.07
2016-12-09T00:55:15.215Z,48.79
2016-12-09T01:00:01.059Z,48.97
2016-12-09T01:00:44.518Z,48.79
2016-12-09T01:02:43.493Z,48.79
2016-12-09T01:03:43.517Z,48.97
2016-12-09T01:04:43.768Z,48.97
2016-12-09T01:05:43.271Z,48.97
2016-12-09T01:06:43.603Z,48.88
2016-12-09T01:07:43.624Z,48.97
2016-12-09T01:08:43.645Z,48.97
2016-12-09T01:09:43.373Z,48.97
2016-12-09T01:10:43.403Z,48.88
2016-12-09T01:11:43.431Z,48.97
2016-12-09T01:12:43.460Z,48.95
2016-12-09T01:13:43.484Z,48.85
2016-12-09T01:14:43.505Z,48.79
2016-12-09T01:15:43.538Z,48.85
2016-12-09T01:16:43.862Z,49.24
2016-12-09T01:17:43.583Z,48.95
2016-12-09T01:18:43.920Z,49.05
2016-12-09T01:19:43.952Z,48.85
2016-12-09T01:20:43.978Z,49.05
2016-12-09T01:21:43.690Z,49.15
2016-12-09T01:22:43.722Z,49.15
2016-12-09T01:23:43.751Z,49.33
2016-12-09T01:24:43.771Z,49.33
2016-12-09T01:25:44.102Z,49.05
2016-12-09T01:26:43.838Z,49.33
2016-12-09T01:27:43.858Z,49.33
2016-12-09T01:28:43.883Z,48.76
2016-12-09T01:29:43.907Z,48.85
2016-12-09T01:30:43.932Z,49.05
2016-12-09T01:31:43.961Z,49.05
2016-12-09T01:32:43.985Z,49.15
2016-12-09T01:33:44.018Z,48.85
2016-12-09T01:34:44.343Z,48.85
2016-12-09T01:35:44.068Z,48.85
2016-12-09T01:36:44.096Z,48.76
2016-12-09T01:37:44.428Z,49.05
2016-12-09T01:38:44.149Z,49.43
2016-12-09T01:39:44.486Z,48.76
2016-12-09T01:40:44.206Z,49.24
2016-12-09T01:41:44.231Z,49.24
2016-12-09T01:42:44.566Z,49.15
2016-12-09T01:43:44.279Z,49.24
2016-12-09T01:44:44.608Z,49.15
2016-12-09T01:45:44.334Z,49.24
2016-12-09T01:46:44.666Z,49.15
2016-12-09T01:47:44.691Z,49.05
2016-12-09T01:48:44.416Z,48.85
2016-12-09T01:49:44.747Z,49.05
2016-12-09T01:50:44.461Z,49.05
2016-12-09T01:51:44.494Z,49.05
2016-12-09T01:52:44.518Z,49.15
2016-12-09T01:53:44.848Z,48.64
2016-12-09T01:54:44.576Z,49.05
2016-12-09T01:55:44.901Z,49.12
2016-12-09T01:56:44.938Z,49.02
2016-12-09T01:57:44.658Z,48.85
2016-12-09T01:58:44.985Z,48.74
2016-12-09T01:59:44.707Z,48.93
2016-12-09T02:00:44.733Z,48.93
2016-12-09T02:01:44.761Z,48.93
2016-12-09T02:02:45.086Z,49.24
2016-12-09T02:03:44.812Z,48.83
2016-12-09T02:04:44.834Z,49.02
2016-12-09T02:05:44.859Z,48.93
2016-12-09T02:06:45.196Z,49.02
2016-12-09T02:07:45.217Z,48.74
2016-12-09T02:08:44.946Z,48.93
2016-12-09T02:09:44.975Z,48.93
2016-12-09T02:10:45.298Z,49.31
2016-12-09T02:11:45.022Z,49.22
2016-12-09T02:12:45.040Z,49.12
2016-12-09T02:13:45.077Z,49.22
2016-12-09T02:14:45.406Z,49.12
2016-12-09T02:15:45.444Z,48.93
2016-12-09T02:16:45.151Z,49.02
2016-12-09T02:17:45.188Z,49.02
2016-12-09T02:18:45.216Z,49.02
2016-12-09T02:19:45.229Z,49.02
2016-12-09T02:20:45.258Z,49.12
2016-12-09T02:21:45.586Z,49.02
2016-12-09T02:22:45.319Z,49.12
2016-12-09T02:23:45.644Z,49.02
2016-12-09T02:24:45.369Z,48.45
2016-12-09T02:25:45.698Z,48.74
2016-12-09T02:26:45.720Z,49.02
2016-12-09T02:27:45.742Z,48.83
2016-12-09T02:28:45.775Z,48.93
2016-12-09T02:29:45.804Z,49.02
2016-12-09T02:30:45.833Z,49.02
2016-12-09T02:31:45.858Z,48.74
2016-12-09T02:32:45.877Z,48.83
2016-12-09T02:33:45.602Z,48.83
2016-12-09T02:34:45.634Z,48.54
2016-12-09T02:35:45.651Z,49.02
2016-12-09T02:36:45.990Z,48.83
2016-12-09T02:37:45.709Z,48.54
2016-12-09T02:38:45.739Z,49.02
2016-12-09T02:39:46.071Z,48.93
2016-12-09T02:40:46.091Z,48.93
2016-12-09T02:41:46.111Z,48.93
2016-12-09T02:42:45.837Z,48.45
2016-12-09T02:43:45.869Z,48.83
2016-12-09T02:44:45.902Z,48.64
2016-12-09T02:45:45.927Z,48.45
2016-12-09T02:46:46.252Z,48.35
2016-12-09T02:47:45.967Z,48.35
2016-12-09T02:48:46.016Z,48.54
2016-12-09T02:49:46.031Z,48.83
2016-12-09T02:50:46.054Z,48.54
2016-12-09T02:51:46.075Z,48.35
2016-12-09T02:52:46.095Z,48.64
2016-12-09T02:53:46.435Z,48.74
2016-12-09T02:54:46.152Z,48.64
2016-12-09T02:55:46.181Z,48.64
2016-12-09T02:56:46.206Z,48.45
2016-12-09T02:57:46.231Z,48.45
2016-12-09T02:58:46.263Z,48.45
2016-12-09T02:59:46.597Z,48.45
2016-12-09T03:00:46.317Z,48.25
2016-12-09T03:01:46.333Z,48.54
2016-12-09T03:02:46.370Z,48.35
2016-12-09T03:03:46.695Z,48.45
2016-12-09T03:04:46.723Z,48.45
2016-12-09T03:05:46.756Z,48.16
2016-12-09T03:06:46.477Z,48.35
2016-12-09T03:07:46.502Z,48.16
2016-12-09T03:08:46.522Z,48.35
2016-12-09T03:09:46.546Z,47.97
2016-12-09T03:10:46.880Z,48.45
2016-12-09T03:11:46.912Z,48.35
2016-12-09T03:12:46.629Z,48.16
2016-12-09T03:13:46.967Z,48.35
2016-12-09T03:14:46.986Z,48.13
2016-12-09T03:15:46.703Z,47.58
2016-12-09T03:16:46.739Z,48.04
2016-12-09T03:17:46.756Z,47.77
2016-12-09T03:18:47.091Z,48.07
2016-12-09T03:19:47.118Z,47.97
2016-12-09T03:20:46.847Z,47.56
2016-12-09T03:21:47.171Z,47.94
2016-12-09T03:22:46.887Z,47.97
2016-12-09T03:23:46.916Z,47.56
2016-12-09T03:24:46.937Z,47.87
2016-12-09T03:25:46.970Z,47.87
2016-12-09T03:26:46.999Z,47.77
2016-12-09T03:27:47.335Z,47.87
2016-12-09T03:28:47.356Z,47.94
2016-12-09T03:29:47.376Z,48.04
2016-12-09T03:30:47.113Z,47.85
2016-12-09T03:31:47.430Z,48.23
2016-12-09T03:32:47.147Z,47.85
2016-12-09T03:33:47.184Z,47.56
2016-12-09T03:34:47.520Z,47.85
2016-12-09T03:35:47.540Z,47.36
2016-12-09T03:36:47.557Z,47.39
2016-12-09T03:37:47.586Z,47.66
2016-12-09T03:38:47.314Z,47.49
2016-12-09T03:39:47.643Z,47.56
2016-12-09T03:40:47.669Z,47.27
2016-12-09T03:41:47.393Z,47.27
2016-12-09T03:42:47.709Z,47.46
2016-12-09T03:43:47.743Z,47.27
2016-12-09T03:44:47.466Z,47.46
2016-12-09T03:45:47.492Z,47.27
2016-12-09T03:46:47.521Z,47.46
2016-12-09T03:47:47.537Z,47.36
2016-12-09T03:48:47.886Z,47.27
2016-12-09T03:49:47.910Z,47.46
2016-12-09T03:50:47.626Z,47.17
2016-12-09T03:51:47.647Z,47.27
2016-12-09T03:52:47.676Z,47.27
2016-12-09T03:53:48.014Z,47.36
2016-12-09T03:54:48.039Z,47.36
2016-12-09T03:55:48.059Z,47.36
2016-12-09T03:56:47.783Z,47.46
2016-12-09T03:57:47.804Z,47.56
2016-12-09T03:58:47.831Z,47.46
2016-12-09T03:59:47.860Z,47.17
2016-12-09T04:00:48.193Z,47.46
2016-12-09T04:01:48.209Z,47.17
2016-12-09T04:02:48.254Z,47.56
2016-12-09T04:03:48.262Z,47.27
2016-12-09T04:04:48.295Z,47.27
2016-12-09T04:05:48.015Z,47.08
2016-12-09T04:06:48.340Z,47.27
2016-12-09T04:07:48.068Z,46.98
2016-12-09T04:08:48.391Z,47.08
2016-12-09T04:09:48.127Z,47.08
2016-12-09T04:10:48.141Z,47.08
2016-12-09T04:11:48.474Z,47.08
2016-12-09T04:12:48.499Z,47.08
2016-12-09T04:13:48.231Z,47.17
2016-12-09T04:14:48.240Z,47.08
2016-12-09T04:15:48.581Z,47.08
2016-12-09T04:16:48.606Z,47.08
2016-12-09T04:17:48.627Z,47.08
2016-12-09T04:18:48.654Z,47.17
2016-12-09T04:19:48.379Z,46.98
2016-12-09T04:20:48.408Z,47.08
2016-12-09T04:21:48.432Z,46.98
2016-12-09T04:22:48.465Z,46.98
2016-12-09T04:23:48.786Z,46.89
2016-12-09T04:24:48.819Z,46.89
2016-12-09T04:25:48.835Z,46.98
2016-12-09T04:26:48.559Z,47.08
2016-12-09T04:27:48.888Z,46.98
2016-12-09T04:28:48.917Z,46.69
2016-12-09T04:29:48.941Z,46.89
2016-12-09T04:30:48.962Z,47.08
2016-12-09T04:31:48.690Z,46.89
2016-12-09T04:32:48.715Z,46.89
2016-12-09T04:33:48.744Z,46.98
2016-12-09T04:34:49.073Z,46.89
2016-12-09T04:35:48.795Z,47.17
2016-12-09T04:36:48.827Z,47.08
2016-12-09T04:37:48.850Z,46.69
2016-12-09T04:38:49.175Z,46.21
2016-12-09T04:39:48.893Z,46.59
2016-12-09T04:40:48.929Z,46.41
2016-12-09T04:41:48.950Z,46.21
2016-12-09T04:42:48.979Z,46.31
2016-12-09T04:43:49.303Z,46.41
2016-12-09T04:44:49.028Z,46.41
2016-12-09T04:45:49.348Z,46.31
2016-12-09T04:46:49.077Z,46.59
2016-12-09T04:47:49.111Z,46.41
2016-12-09T04:48:49.439Z,46.31
2016-12-09T04:49:49.155Z,46.59
2016-12-09T04:50:49.481Z,46.41
2016-12-09T04:51:49.513Z,46.41
2016-12-09T04:52:49.233Z,46.12
2016-12-09T04:53:49.582Z,46.12
2016-12-09T04:54:49.282Z,46.31
2016-12-09T04:55:49.311Z,46.12
2016-12-09T04:56:49.343Z,46.31
2016-12-09T04:57:49.365Z,46.21
2016-12-09T04:58:49.697Z,46.31
2016-12-09T04:59:49.426Z,46.31
2016-12-09T05:00:49.746Z,46.31
2016-12-09T05:01:49.775Z,46.21
2016-12-09T05:02:49.495Z,46.5
2016-12-09T05:03:49.521Z,46.59
2016-12-09T05:04:49.549Z,46.59
2016-12-09T05:05:49.883Z,46.59
2016-12-09T05:06:49.906Z,46.12
2016-12-09T05:07:49.619Z,46.5
2016-12-09T05:08:49.652Z,46.02
2016-12-09T05:09:49.676Z,46.12
2016-12-09T05:10:50.013Z,46.59
2016-12-09T05:11:50.038Z,46.5
2016-12-09T05:12:49.758Z,46.02
2016-12-09T05:13:49.783Z,46.21
2016-12-09T05:14:49.808Z,46.09
2016-12-09T05:15:49.828Z,46.12
2016-12-09T05:16:49.853Z,46.12
2016-12-09T05:17:49.886Z,46.21
2016-12-09T05:18:49.919Z,46.41
2016-12-09T05:19:49.940Z,46.12
2016-12-09T05:20:49.956Z,46.12
2016-12-09T05:21:49.993Z,46.09
2016-12-09T05:22:50.013Z,45.81
2016-12-09T05:23:50.045Z,46.38
2016-12-09T05:24:50.723Z,46.12
2016-12-09T05:25:50.400Z,45.92
2016-12-09T05:26:50.425Z,46.02
2016-12-09T05:27:50.445Z,45.92
2016-12-09T05:28:50.174Z,45.83
2016-12-09T05:29:50.507Z,45.54
2016-12-09T05:30:50.531Z,45.73
2016-12-09T05:31:50.552Z,46.12
2016-12-09T05:32:50.277Z,46.02
2016-12-09T05:33:50.610Z,45.83
2016-12-09T05:34:50.358Z,45.92
2016-12-09T05:35:50.651Z,45.83
2016-12-09T05:36:50.380Z,45.54
2016-12-09T05:37:50.405Z,45.25
2016-12-09T05:38:50.737Z,45.64
2016-12-09T05:39:51.059Z,45.64
2016-12-09T05:40:50.787Z,45.83
2016-12-09T05:41:50.812Z,45.45
2016-12-09T05:42:50.532Z,44.96
2016-12-09T05:43:50.565Z,45.35
2016-12-09T05:44:50.898Z,45.28
2016-12-09T05:45:50.923Z,45.15
2016-12-09T05:46:50.636Z,45.18
2016-12-09T05:47:50.678Z,44.89
2016-12-09T05:48:50.993Z,45.37
2016-12-09T05:49:50.744Z,45.37
2016-12-09T05:50:50.743Z,45.28
2016-12-09T05:51:50.775Z,45.08
2016-12-09T05:52:50.796Z,45.18
2016-12-09T05:53:51.141Z,44.89
2016-12-09T05:54:50.854Z,44.89
2016-12-09T05:55:51.183Z,44.7
2016-12-09T05:56:50.905Z,44.22
2016-12-09T05:57:50.928Z,44.31
2016-12-09T05:58:51.251Z,44.51
2016-12-09T05:59:50.985Z,44.6
2016-12-09T06:00:51.010Z,44.6
2016-12-09T06:01:51.347Z,44.6
2016-12-09T06:02:51.373Z,44.51
2016-12-09T06:03:51.080Z,44.31
2016-12-09T06:04:51.413Z,44.7
2016-12-09T06:05:51.442Z,44.62
2016-12-09T06:06:51.163Z,44.51
2016-12-09T06:07:51.496Z,44.62
2016-12-09T06:08:51.528Z,44.43
2016-12-09T06:09:51.246Z,44.72
2016-12-09T06:10:51.275Z,44.62
2016-12-09T06:11:51.291Z,44.43
2016-12-09T06:12:51.320Z,44.43
2016-12-09T06:13:51.656Z,44.62
2016-12-09T06:14:51.369Z,44.53
2016-12-09T06:15:51.406Z,44.91
2016-12-09T06:16:51.734Z,44.91
2016-12-09T06:17:51.455Z,44.91
2016-12-09T06:18:51.775Z,44.62
2016-12-09T06:19:51.505Z,44.91
2016-12-09T06:20:51.529Z,44.24
2016-12-09T06:21:51.866Z,44.24
2016-12-09T06:22:51.580Z,44.62
2016-12-09T06:23:51.915Z,44.62
2016-12-09T06:24:51.944Z,44.72
2016-12-09T06:25:51.672Z,44.14
2016-12-09T06:26:51.693Z,44.24
2016-12-09T06:27:52.013Z,44.45
2016-12-09T06:28:51.739Z,44.84
2016-12-09T06:29:51.759Z,44.65
2016-12-09T06:30:51.800Z,44.65
2016-12-09T06:31:51.821Z,44.74
2016-12-09T06:32:52.149Z,44.74
2016-12-09T06:33:52.180Z,44.45
2016-12-09T06:34:51.894Z,44.45
2016-12-09T06:35:51.919Z,44.74
2016-12-09T06:36:51.947Z,44.35
2016-12-09T06:37:52.281Z,44.35
2016-12-09T06:38:52.001Z,44.45
2016-12-09T06:39:52.334Z,44.55
2016-12-09T06:40:52.367Z,43.97
2016-12-09T06:41:52.088Z,44.17
2016-12-09T06:42:52.421Z,44.26
2016-12-09T06:43:52.441Z,43.88
2016-12-09T06:44:52.169Z,44.07
2016-12-09T06:45:52.186Z,44.07
2016-12-09T06:46:52.215Z,44.45
2016-12-09T06:47:52.256Z,44.17
2016-12-09T06:48:52.573Z,44.26
2016-12-09T06:49:52.600Z,44.17
2016-12-09T06:50:52.323Z,44.45
2016-12-09T06:51:52.647Z,44.17
2016-12-09T06:52:52.671Z,44.35
2016-12-09T06:53:52.704Z,44.35
2016-12-09T06:54:52.428Z,44.35
2016-12-09T06:55:52.453Z,44.17
2016-12-09T06:56:52.787Z,44.45
2016-12-09T06:57:52.815Z,44.45
2016-12-09T06:58:52.844Z,44.26
2016-12-09T06:59:52.556Z,44.26
2016-12-09T07:00:52.589Z,43.97
2016-12-09T07:01:52.613Z,44.26
2016-12-09T07:02:52.647Z,43.78
2016-12-09T07:03:52.979Z,43.97
2016-12-09T07:04:53.160Z,43.97
2016-12-09T07:05:53.468Z,43.59
2016-12-09T07:06:53.393Z,43.78
2016-12-09T07:07:53.266Z,43.97
2016-12-09T07:08:53.662Z,43.78
2016-12-09T07:09:52.990Z,43.99
2016-12-09T07:10:52.858Z,43.8
2016-12-09T07:11:53.590Z,43.71
2016-12-09T07:12:52.910Z,43.51
2016-12-09T07:13:53.234Z,43.61
2016-12-09T07:14:52.967Z,43.61
2016-12-09T07:15:52.987Z,43.61
2016-12-09T07:16:53.012Z,43.51
2016-12-09T07:17:53.345Z,43.51
2016-12-09T07:18:53.374Z,43.51
2016-12-09T07:19:53.382Z,43.61
2016-12-09T07:20:53.123Z,43.71
2016-12-09T07:21:53.141Z,43.71
2016-12-09T07:22:53.168Z,43.32
2016-12-09T07:23:53.509Z,43.23
2016-12-09T07:24:53.222Z,43.32
2016-12-09T07:25:53.558Z,43.32
2016-12-09T07:26:53.579Z,43.13
2016-12-09T07:27:53.611Z,43.32
2016-12-09T07:28:53.340Z,43.13
2016-12-09T07:29:53.369Z,43.41
2016-12-09T07:30:53.690Z,42.93
2016-12-09T07:31:53.410Z,42.93
2016-12-09T07:32:53.439Z,43.03
2016-12-09T07:33:53.499Z,43.03
2016-12-09T07:34:53.792Z,42.55
2016-12-09T07:35:53.524Z,42.46
2016-12-09T07:36:53.849Z,43.13
2016-12-09T07:37:53.880Z,42.93
2016-12-09T07:38:53.907Z,43.41
2016-12-09T07:39:53.922Z,43.03
2016-12-09T07:40:53.955Z,42.84
2016-12-09T07:41:53.672Z,42.93
2016-12-09T07:42:53.710Z,42.93
2016-12-09T07:43:53.738Z,43.23
2016-12-09T07:44:54.064Z,43.13
2016-12-09T07:45:53.791Z,43.13
2016-12-09T07:46:54.112Z,43.13
2016-12-09T07:47:54.144Z,43.23
2016-12-09T07:48:54.169Z,43.23
2016-12-09T07:49:54.194Z,43.32
2016-12-09T07:50:53.926Z,43.23
2016-12-09T07:51:54.247Z,43.03
2016-12-09T07:52:54.271Z,43.23
2016-12-09T07:53:54.312Z,42.65
2016-12-09T07:54:54.028Z,42.46
2016-12-09T07:55:54.053Z,42.36
2016-12-09T07:56:54.379Z,42.65
2016-12-09T07:57:54.406Z,42.65
2016-12-09T07:58:54.131Z,42.46
2016-12-09T07:59:54.460Z,42.46
2016-12-09T08:00:54.181Z,42.26
2016-12-09T08:01:54.522Z,42.65
2016-12-09T08:02:54.243Z,42.63
2016-12-09T08:03:54.578Z,42.53
2016-12-09T08:04:54.295Z,42.53
2016-12-09T08:05:54.316Z,42.43
2016-12-09T08:06:54.345Z,42.53
2016-12-09T08:07:54.677Z,42.33
2016-12-09T08:08:54.402Z,42.33
2016-12-09T08:09:54.427Z,42.53
2016-12-09T08:10:54.460Z,42.05
2016-12-09T08:11:54.785Z,42.24
2016-12-09T08:12:54.501Z,42.24
2016-12-09T08:13:54.530Z,42.24
2016-12-09T08:14:54.567Z,42.05
2016-12-09T08:15:54.591Z,42.24
2016-12-09T08:16:54.916Z,42.14
2016-12-09T08:17:54.645Z,42.43
2016-12-09T08:18:54.979Z,42.05
2016-12-09T08:19:54.690Z,42.14
2016-12-09T08:20:55.023Z,42.53
2016-12-09T08:21:54.751Z,42.63
2016-12-09T08:22:54.777Z,42.43
2016-12-09T08:23:54.809Z,42.43
2016-12-09T08:24:54.830Z,42.63
2016-12-09T08:25:55.167Z,42.72
2016-12-09T08:26:54.880Z,42.63
2016-12-09T08:27:55.209Z,42.33
2016-12-09T08:28:54.937Z,42.43
2016-12-09T08:29:55.270Z,42.24
2016-12-09T08:30:55.290Z,42.63
2016-12-09T08:31:55.019Z,42.53
2016-12-09T08:32:55.352Z,42.63
2016-12-09T08:33:55.373Z,42.63
2016-12-09T08:34:55.409Z,42.53
2016-12-09T08:35:55.430Z,42.53
2016-12-09T08:36:55.155Z,42.43
2016-12-09T08:37:55.175Z,42.63
2016-12-09T08:38:55.508Z,42.63
2016-12-09T08:39:55.541Z,42.63
2016-12-09T08:40:55.262Z,42.33
2016-12-09T08:41:55.593Z,42.33
2016-12-09T08:42:55.616Z,42.24
2016-12-09T08:43:55.336Z,42.14
2016-12-09T08:44:55.373Z,42.24
2016-12-09T08:45:55.402Z,42.24
2016-12-09T08:46:55.428Z,41.95
2016-12-09T08:47:55.451Z,42.43
2016-12-09T08:48:55.479Z,41.95
2016-12-09T08:49:55.807Z,42.14
2016-12-09T08:50:55.834Z,42.05
2016-12-09T08:51:55.559Z,42.24
2016-12-09T08:52:55.583Z,42.24
2016-12-09T08:53:55.620Z,42.24
2016-12-09T08:54:55.639Z,42.05
2016-12-09T08:55:55.970Z,42.33
2016-12-09T08:56:55.695Z,42.53
2016-12-09T08:57:55.715Z,42.33
2016-12-09T08:58:55.750Z,42.53
2016-12-09T08:59:55.797Z,42.53
2016-12-09T09:00:55.798Z,42.63
2016-12-09T09:01:55.831Z,42.53
2016-12-09T09:02:56.176Z,42.72
2016-12-09T09:03:56.189Z,43.11
2016-12-09T09:04:55.917Z,42.91
2016-12-09T09:05:56.238Z,43.2
2016-12-09T09:06:55.958Z,43.68
2016-12-09T09:07:55.987Z,43.3
2016-12-09T09:08:56.020Z,43.78
2016-12-09T09:09:56.349Z,43.68
2016-12-09T09:10:56.074Z,44.45
2016-12-09T09:11:56.403Z,44.26
2016-12-09T09:12:56.123Z,44.17
2016-12-09T09:13:56.144Z,44.65
2016-12-09T09:14:56.493Z,44.74
2016-12-09T09:15:56.205Z,44.74
2016-12-09T09:16:56.534Z,45.42
2016-12-09T09:17:56.567Z,45.13
2016-12-09T09:18:56.592Z,45.13
2016-12-09T09:19:56.309Z,45.32
2016-12-09T09:20:56.332Z,45.32
2016-12-09T09:21:56.366Z,45.13
2016-12-09T09:22:56.695Z,45.1
2016-12-09T09:23:56.720Z,45.1
2016-12-09T09:24:56.448Z,45.13
2016-12-09T09:25:56.780Z,45.03
2016-12-09T09:26:56.497Z,45.39
2016-12-09T09:27:56.522Z,45.01
2016-12-09T09:28:56.851Z,45.39
2016-12-09T09:29:56.884Z,44.91
2016-12-09T09:30:56.604Z,45.39
2016-12-09T09:31:56.937Z,45.49
2016-12-09T09:32:56.966Z,45.01
2016-12-09T09:33:56.692Z,44.82
2016-12-09T09:34:56.708Z,44.72
2016-12-09T09:35:56.740Z,44.35
2016-12-09T09:36:57.072Z,44.34
2016-12-09T09:37:57.118Z,44.62
2016-12-09T09:38:56.826Z,45.2
2016-12-09T09:39:57.155Z,45.1
2016-12-09T09:40:57.184Z,44.91
2016-12-09T09:41:56.903Z,44.72
2016-12-09T09:42:56.925Z,45.01
2016-12-09T09:43:56.958Z,44.82
2016-12-09T09:44:57.292Z,44.14
2016-12-09T09:45:57.317Z,44.72
2016-12-09T09:46:57.343Z,44.72
2016-12-09T09:47:57.366Z,44.72
2016-12-09T09:48:57.095Z,44.62
2016-12-09T09:49:57.111Z,44.72
2016-12-09T09:50:57.452Z,44.53
2016-12-09T09:51:57.173Z,44.72
2016-12-09T09:52:57.197Z,44.34
2016-12-09T09:53:57.231Z,44.62
2016-12-09T09:54:57.559Z,44.72
2016-12-09T09:55:57.296Z,44.72
2016-12-09T09:56:57.309Z,44.62
2016-12-09T09:57:57.329Z,44.34
2016-12-09T09:58:57.362Z,44.43
2016-12-09T09:59:57.389Z,44.53
2016-12-09T10:00:57.407Z,44.62
2016-12-09T10:01:57.437Z,44.34
2016-12-09T10:02:57.770Z,44.14
2016-12-09T10:03:57.486Z,44.24
2016-12-09T10:04:57.519Z,43.95
2016-12-09T10:05:57.848Z,44.34
2016-12-09T10:06:57.573Z,44.24
2016-12-09T10:07:57.905Z,44.34
2016-12-09T10:08:57.630Z,44.34
2016-12-09T10:09:57.655Z,44.24
2016-12-09T10:10:57.979Z,44.14
2016-12-09T10:11:58.012Z,44.05
2016-12-09T10:12:57.733Z,44.05
2016-12-09T10:13:58.063Z,44.05
2016-12-09T10:14:57.795Z,44.34
2016-12-09T10:15:58.123Z,44.14
2016-12-09T10:16:57.843Z,44.14
2016-12-09T10:17:57.860Z,44.34
2016-12-09T10:18:57.895Z,44.05
2016-12-09T10:19:57.918Z,44.34
2016-12-09T10:20:57.951Z,43.95
2016-12-09T10:21:57.977Z,44.53
2016-12-09T10:22:58.304Z,43.95
2016-12-09T10:23:58.030Z,43.66
2016-12-09T10:24:58.053Z,43.76
2016-12-09T10:25:58.079Z,43.85
2016-12-09T10:26:58.419Z,43.66
2016-12-09T10:27:58.136Z,43.66
2016-12-09T10:28:58.473Z,43.57
2016-12-09T10:29:58.498Z,43.66
2016-12-09T10:30:58.527Z,43.76
2016-12-09T10:31:58.243Z,43.66
2016-12-09T10:32:58.576Z,43.57
2016-12-09T10:33:58.298Z,43.57
2016-12-09T10:34:58.321Z,43.47
2016-12-09T10:35:58.658Z,43.76
2016-12-09T10:36:58.696Z,43.93
2016-12-09T10:37:58.700Z,43.95
2016-12-09T10:38:58.739Z,44.05
2016-12-09T10:39:58.453Z,43.64
2016-12-09T10:40:58.482Z,43.66
2016-12-09T10:41:58.511Z,43.26
2016-12-09T10:42:58.839Z,43.37
2016-12-09T10:43:58.869Z,43.47
2016-12-09T10:44:58.893Z,43.47
2016-12-09T10:45:58.622Z,43.66
2016-12-09T10:46:58.642Z,43.66
2016-12-09T10:47:58.671Z,43.47
2016-12-09T10:48:58.699Z,43.57
2016-12-09T10:49:58.752Z,43.57
2016-12-09T10:50:58.749Z,43.66
2016-12-09T10:51:58.790Z,43.54
2016-12-09T10:52:58.815Z,43.57
2016-12-09T10:53:59.141Z,43.47
2016-12-09T10:54:58.856Z,43.74
2016-12-09T10:55:58.889Z,43.16
2016-12-09T10:56:58.916Z,43.76
2016-12-09T10:57:59.247Z,43.16
2016-12-09T10:58:59.280Z,43.28
2016-12-09T10:59:58.995Z,43.28
2016-12-09T11:00:59.324Z,43.37
2016-12-09T11:01:59.046Z,43.18
2016-12-09T11:02:59.378Z,43.28
2016-12-09T11:03:59.398Z,43.35
2016-12-09T11:04:59.435Z,43.07
2016-12-09T11:05:59.153Z,43.07
2016-12-09T11:06:59.181Z,42.99
2016-12-09T11:07:59.514Z,42.8
2016-12-09T11:08:59.238Z,42.87
2016-12-09T11:09:59.563Z,42.8
2016-12-09T11:10:59.287Z,42.58
2016-12-09T11:11:59.617Z,42.5
2016-12-09T11:12:59.646Z,43.47
2016-12-09T11:13:59.670Z,42.99
2016-12-09T11:14:59.399Z,42.89
2016-12-09T11:15:59.716Z,42.89
2016-12-09T11:16:59.756Z,43.08
2016-12-09T11:17:59.777Z,42.5
2016-12-09T11:18:59.505Z,42.5
2016-12-09T11:19:59.528Z,42.5
2016-12-09T11:20:59.862Z,42.6
2016-12-09T11:21:59.587Z,42.03
2016-12-09T11:22:59.903Z,42.12
2016-12-09T11:23:59.640Z,42.03
2016-12-09T11:24:59.661Z,42.03
2016-12-09T11:26:00.001Z,42.12
2016-12-09T11:26:59.718Z,42.22
2016-12-09T11:28:00.046Z,42.43
2016-12-09T11:28:59.763Z,42.12
2016-12-09T11:30:00.099Z,42.12
2016-12-09T11:30:59.824Z,42.33
2016-12-09T11:31:59.853Z,42.22
2016-12-09T11:33:00.174Z,42.22
2016-12-09T11:33:59.903Z,41.74
2016-12-09T11:34:59.933Z,41.66
2016-12-09T11:36:00.255Z,41.66
2016-12-09T11:36:59.984Z,42.14
2016-12-09T11:38:00.313Z,41.95
2016-12-09T11:39:00.346Z,41.95
2016-12-09T11:40:00.375Z,42.05
2016-12-09T11:41:00.396Z,41.76
2016-12-09T11:42:00.428Z,41.76
2016-12-09T11:43:00.140Z,41.38
2016-12-09T11:44:00.477Z,41.38
2016-12-09T11:45:00.202Z,41.47
2016-12-09T11:46:00.529Z,41.47
2016-12-09T11:47:00.260Z,41.28
2016-12-09T11:48:00.313Z,41.28
2016-12-09T11:49:00.313Z,41.28
2016-12-09T11:50:00.634Z,41.56
2016-12-09T11:51:00.362Z,41.56
2016-12-09T11:52:00.387Z,41.47
2016-12-09T11:53:00.716Z,41.56
2016-12-09T11:54:00.740Z,41.08
2016-12-09T11:55:00.777Z,41.18
2016-12-09T11:56:00.806Z,41.18
2016-12-09T11:57:00.523Z,41.56
2016-12-09T11:58:00.547Z,41.47
2016-12-09T11:59:00.580Z,41.56
2016-12-09T12:00:00.905Z,41.56
2016-12-09T12:01:00.939Z,41.56
2016-12-09T12:02:00.966Z,41.56
2016-12-09T12:03:00.997Z,41.76
2016-12-09T12:04:00.716Z,41.47
2016-12-09T12:05:00.753Z,41.76
2016-12-09T12:06:00.769Z,41.76
2016-12-09T12:07:01.110Z,41.38
2016-12-09T12:08:01.128Z,41.56
2016-12-09T12:09:01.160Z,41.47
2016-12-09T12:10:01.186Z,41.56
2016-12-09T12:11:00.904Z,41.28
2016-12-09T12:12:00.926Z,41.56
2016-12-09T12:13:00.954Z,41.56
2016-12-09T12:14:01.293Z,40.99
2016-12-09T12:15:01.016Z,41.47
2016-12-09T12:16:01.041Z,41.47
2016-12-09T12:17:01.074Z,40.99
2016-12-09T12:18:01.394Z,41.18
2016-12-09T12:19:01.419Z,40.99
2016-12-09T12:20:01.151Z,40.99
2016-12-09T12:21:01.181Z,41.08
2016-12-09T12:22:01.501Z,41.76
2016-12-09T12:23:01.230Z,41.56
2016-12-09T12:24:01.563Z,41.56
2016-12-09T12:25:01.583Z,41.56
2016-12-09T12:26:01.611Z,41.76
2016-12-09T12:27:01.648Z,41.56
2016-12-09T12:28:01.369Z,41.56
2016-12-09T12:29:01.689Z,41.56
2016-12-09T12:30:01.421Z,41.76
2016-12-09T12:31:01.447Z,41.66
2016-12-09T12:32:01.466Z,41.76
2016-12-09T12:33:01.497Z,41.38
2016-12-09T12:34:01.520Z,41.28
2016-12-09T12:35:01.549Z,41.35
2016-12-09T12:36:01.581Z,41.35
2016-12-09T12:37:01.915Z,41.55
2016-12-09T12:38:01.937Z,41.16
2016-12-09T12:39:01.667Z,41.38
2016-12-09T12:40:01.683Z,41.26
2016-12-09T12:41:02.011Z,41.35
2016-12-09T12:42:02.049Z,41.35
2016-12-09T12:43:02.073Z,41.83
2016-12-09T12:44:01.798Z,41.83
2016-12-09T12:45:01.846Z,41.83
2016-12-09T12:46:02.142Z,41.76
2016-12-09T12:47:02.187Z,41.55
2016-12-09T12:48:02.204Z,42.22
2016-12-09T12:49:01.933Z,41.64
2016-12-09T12:50:01.953Z,42.03
2016-12-09T12:51:01.987Z,41.83
2016-12-09T12:52:02.315Z,41.83
2016-12-09T12:53:02.031Z,41.74
2016-12-09T12:54:02.064Z,41.45
2016-12-09T12:55:02.088Z,41.45
2016-12-09T12:56:02.421Z,41.45
2016-12-09T12:57:02.146Z,41.74
2016-12-09T12:58:02.170Z,41.83
2016-12-09T12:59:02.507Z,41.45